sensor_id;sensor_type;location;lat;lon;timestamp;P1;durP1;ratioP1;P2;durP2;ratioP2
56718;SDS011;42597;40.636;0.278;2024-01-27T00:01:38;9.30;;;6.47;;
56718;SDS011;42597;40.636;0.278;2024-01-27T00:04:04;10.65;;;6.90;;
56718;SDS011;42597;40.636;0.278;2024-01-27T00:06:30;9.32;;;7.55;;
56718;SDS011;42597;40.636;0.278;2024-01-27T00:08:55;16.17;;;9.10;;
56718;SDS011;42597;40.636;0.278;2024-01-27T00:11:21;16.65;;;12.38;;
56718;SDS011;42597;40.636;0.278;2024-01-27T00:13:48;8.63;;;6.78;;
56718;SDS011;42597;40.636;0.278;2024-01-27T00:16:14;10.80;;;7.20;;
56718;SDS011;42597;40.636;0.278;2024-01-27T00:18:39;10.63;;;7.50;;
56718;SDS011;42597;40.636;0.278;2024-01-27T00:21:05;9.98;;;6.20;;
56718;SDS011;42597;40.636;0.278;2024-01-27T00:23:32;8.50;;;5.43;;
56718;SDS011;42597;40.636;0.278;2024-01-27T00:25:58;15.70;;;6.80;;
56718;SDS011;42597;40.636;0.278;2024-01-27T00:28:24;13.90;;;5.35;;
56718;SDS011;42597;40.636;0.278;2024-01-27T00:30:49;11.38;;;7.05;;
56718;SDS011;42597;40.636;0.278;2024-01-27T00:33:15;10.98;;;5.97;;
56718;SDS011;42597;40.636;0.278;2024-01-27T00:35:41;15.80;;;7.15;;
56718;SDS011;42597;40.636;0.278;2024-01-27T00:38:07;16.88;;;7.40;;
56718;SDS011;42597;40.636;0.278;2024-01-27T00:40:33;14.57;;;6.28;;
56718;SDS011;42597;40.636;0.278;2024-01-27T00:42:58;10.38;;;5.82;;
56718;SDS011;42597;40.636;0.278;2024-01-27T00:45:24;11.40;;;6.68;;
56718;SDS011;42597;40.636;0.278;2024-01-27T00:47:51;9.75;;;6.35;;
56718;SDS011;42597;40.636;0.278;2024-01-27T00:50:17;13.20;;;7.20;;
56718;SDS011;42597;40.636;0.278;2024-01-27T00:52:43;10.18;;;8.00;;
56718;SDS011;42597;40.636;0.278;2024-01-27T00:55:08;8.35;;;6.07;;
56718;SDS011;42597;40.636;0.278;2024-01-27T00:57:36;9.45;;;4.95;;
56718;SDS011;42597;40.636;0.278;2024-01-27T01:02:29;8.02;;;5.22;;
56718;SDS011;42597;40.636;0.278;2024-01-27T01:04:55;8.40;;;5.80;;
56718;SDS011;42597;40.636;0.278;2024-01-27T01:07:20;9.80;;;5.68;;
56718;SDS011;42597;40.636;0.278;2024-01-27T01:09:46;7.90;;;5.40;;
56718;SDS011;42597;40.636;0.278;2024-01-27T01:12:11;8.27;;;5.13;;
56718;SDS011;42597;40.636;0.278;2024-01-27T01:14:37;7.43;;;5.10;;
56718;SDS011;42597;40.636;0.278;2024-01-27T01:17:04;11.10;;;5.13;;
56718;SDS011;42597;40.636;0.278;2024-01-27T01:19:30;6.80;;;4.65;;
56718;SDS011;42597;40.636;0.278;2024-01-27T01:21:55;11.32;;;5.57;;
56718;SDS011;42597;40.636;0.278;2024-01-27T01:24:21;7.78;;;5.32;;
56718;SDS011;42597;40.636;0.278;2024-01-27T01:26:47;7.40;;;4.35;;
56718;SDS011;42597;40.636;0.278;2024-01-27T01:29:12;11.88;;;4.82;;
56718;SDS011;42597;40.636;0.278;2024-01-27T01:31:38;8.85;;;4.03;;
56718;SDS011;42597;40.636;0.278;2024-01-27T01:34:06;7.93;;;5.17;;
56718;SDS011;42597;40.636;0.278;2024-01-27T01:36:31;9.25;;;5.05;;
56718;SDS011;42597;40.636;0.278;2024-01-27T01:38:57;13.48;;;5.30;;
56718;SDS011;42597;40.636;0.278;2024-01-27T01:41:23;7.53;;;5.10;;
56718;SDS011;42597;40.636;0.278;2024-01-27T01:43:48;7.03;;;4.93;;
56718;SDS011;42597;40.636;0.278;2024-01-27T01:46:14;8.77;;;5.88;;
56718;SDS011;42597;40.636;0.278;2024-01-27T01:48:39;7.97;;;5.05;;
56718;SDS011;42597;40.636;0.278;2024-01-27T01:51:05;8.27;;;5.35;;
56718;SDS011;42597;40.636;0.278;2024-01-27T01:53:31;7.53;;;4.45;;
56718;SDS011;42597;40.636;0.278;2024-01-27T01:55:57;8.70;;;4.40;;
56718;SDS011;42597;40.636;0.278;2024-01-27T01:58:23;6.63;;;4.32;;
56718;SDS011;42597;40.636;0.278;2024-01-27T02:00:49;7.80;;;4.63;;
56718;SDS011;42597;40.636;0.278;2024-01-27T02:03:14;9.25;;;4.13;;
56718;SDS011;42597;40.636;0.278;2024-01-27T02:05:40;6.72;;;4.75;;
56718;SDS011;42597;40.636;0.278;2024-01-27T02:08:06;7.85;;;4.10;;
56718;SDS011;42597;40.636;0.278;2024-01-27T02:10:31;8.25;;;4.45;;
56718;SDS011;42597;40.636;0.278;2024-01-27T02:13:14;7.20;;;4.78;;
56718;SDS011;42597;40.636;0.278;2024-01-27T02:15:45;11.07;;;4.75;;
56718;SDS011;42597;40.636;0.278;2024-01-27T02:18:11;7.75;;;5.03;;
56718;SDS011;42597;40.636;0.278;2024-01-27T02:20:36;7.03;;;4.30;;
56718;SDS011;42597;40.636;0.278;2024-01-27T02:23:03;6.10;;;4.22;;
56718;SDS011;42597;40.636;0.278;2024-01-27T02:25:33;7.75;;;4.70;;
56718;SDS011;42597;40.636;0.278;2024-01-27T02:27:59;6.93;;;4.38;;
56718;SDS011;42597;40.636;0.278;2024-01-27T02:30:25;7.13;;;4.32;;
56718;SDS011;42597;40.636;0.278;2024-01-27T02:32:51;12.00;;;4.55;;
56718;SDS011;42597;40.636;0.278;2024-01-27T02:35:18;9.75;;;4.38;;
56718;SDS011;42597;40.636;0.278;2024-01-27T02:37:43;8.18;;;4.30;;
56718;SDS011;42597;40.636;0.278;2024-01-27T02:40:09;6.13;;;3.97;;
56718;SDS011;42597;40.636;0.278;2024-01-27T02:42:38;6.78;;;4.47;;
56718;SDS011;42597;40.636;0.278;2024-01-27T02:45:04;7.55;;;3.70;;
56718;SDS011;42597;40.636;0.278;2024-01-27T02:47:30;6.20;;;3.97;;
56718;SDS011;42597;40.636;0.278;2024-01-27T02:49:55;6.43;;;4.55;;
56718;SDS011;42597;40.636;0.278;2024-01-27T02:52:21;6.60;;;4.40;;
56718;SDS011;42597;40.636;0.278;2024-01-27T02:54:47;7.10;;;3.45;;
56718;SDS011;42597;40.636;0.278;2024-01-27T02:57:12;7.25;;;4.38;;
56718;SDS011;42597;40.636;0.278;2024-01-27T02:59:38;6.95;;;4.53;;
56718;SDS011;42597;40.636;0.278;2024-01-27T03:02:07;7.28;;;4.03;;
56718;SDS011;42597;40.636;0.278;2024-01-27T03:06:58;9.60;;;4.78;;
56718;SDS011;42597;40.636;0.278;2024-01-27T03:09:24;9.05;;;3.85;;
56718;SDS011;42597;40.636;0.278;2024-01-27T03:11:49;9.90;;;4.45;;
56718;SDS011;42597;40.636;0.278;2024-01-27T03:14:15;7.78;;;4.50;;
56718;SDS011;42597;40.636;0.278;2024-01-27T03:16:43;7.47;;;4.45;;
56718;SDS011;42597;40.636;0.278;2024-01-27T03:19:09;6.95;;;3.67;;
56718;SDS011;42597;40.636;0.278;2024-01-27T03:21:35;9.15;;;4.90;;
56718;SDS011;42597;40.636;0.278;2024-01-27T03:24:01;8.73;;;3.85;;
56718;SDS011;42597;40.636;0.278;2024-01-27T03:26:27;5.32;;;3.28;;
56718;SDS011;42597;40.636;0.278;2024-01-27T03:28:52;6.45;;;3.80;;
56718;SDS011;42597;40.636;0.278;2024-01-27T03:31:18;7.90;;;4.10;;
56718;SDS011;42597;40.636;0.278;2024-01-27T03:33:44;5.15;;;3.72;;
56718;SDS011;42597;40.636;0.278;2024-01-27T03:36:10;7.90;;;4.32;;
56718;SDS011;42597;40.636;0.278;2024-01-27T03:38:36;6.18;;;3.72;;
56718;SDS011;42597;40.636;0.278;2024-01-27T03:41:03;7.25;;;4.15;;
56718;SDS011;42597;40.636;0.278;2024-01-27T03:43:29;5.75;;;3.92;;
56718;SDS011;42597;40.636;0.278;2024-01-27T03:45:56;7.05;;;3.45;;
56718;SDS011;42597;40.636;0.278;2024-01-27T03:48:22;6.72;;;3.55;;
56718;SDS011;42597;40.636;0.278;2024-01-27T03:50:48;8.00;;;4.35;;
56718;SDS011;42597;40.636;0.278;2024-01-27T03:53:13;6.20;;;3.67;;
56718;SDS011;42597;40.636;0.278;2024-01-27T03:55:39;6.57;;;3.63;;
56718;SDS011;42597;40.636;0.278;2024-01-27T03:58:04;7.20;;;4.18;;
56718;SDS011;42597;40.636;0.278;2024-01-27T04:00:31;6.78;;;3.50;;
56718;SDS011;42597;40.636;0.278;2024-01-27T04:03:01;5.85;;;3.70;;
56718;SDS011;42597;40.636;0.278;2024-01-27T04:05:27;8.77;;;4.25;;
56718;SDS011;42597;40.636;0.278;2024-01-27T04:07:54;6.63;;;4.13;;
56718;SDS011;42597;40.636;0.278;2024-01-27T04:10:20;8.98;;;3.67;;
56718;SDS011;42597;40.636;0.278;2024-01-27T04:12:46;6.80;;;3.45;;
56718;SDS011;42597;40.636;0.278;2024-01-27T04:15:11;7.00;;;3.75;;
56718;SDS011;42597;40.636;0.278;2024-01-27T04:17:37;9.38;;;3.95;;
56718;SDS011;42597;40.636;0.278;2024-01-27T04:20:03;8.23;;;4.10;;
56718;SDS011;42597;40.636;0.278;2024-01-27T04:22:30;6.40;;;4.15;;
56718;SDS011;42597;40.636;0.278;2024-01-27T04:24:56;7.35;;;3.67;;
56718;SDS011;42597;40.636;0.278;2024-01-27T04:27:21;6.72;;;3.60;;
56718;SDS011;42597;40.636;0.278;2024-01-27T04:29:47;11.65;;;4.03;;
56718;SDS011;42597;40.636;0.278;2024-01-27T04:32:13;7.45;;;4.13;;
56718;SDS011;42597;40.636;0.278;2024-01-27T04:34:38;6.38;;;4.03;;
56718;SDS011;42597;40.636;0.278;2024-01-27T04:37:04;8.40;;;3.63;;
56718;SDS011;42597;40.636;0.278;2024-01-27T04:39:30;8.15;;;3.95;;
56718;SDS011;42597;40.636;0.278;2024-01-27T04:41:56;8.10;;;4.13;;
56718;SDS011;42597;40.636;0.278;2024-01-27T04:44:21;8.90;;;4.88;;
56718;SDS011;42597;40.636;0.278;2024-01-27T04:46:47;9.23;;;4.20;;
56718;SDS011;42597;40.636;0.278;2024-01-27T04:49:14;7.65;;;3.67;;
56718;SDS011;42597;40.636;0.278;2024-01-27T04:51:40;9.40;;;3.60;;
56718;SDS011;42597;40.636;0.278;2024-01-27T04:54:06;7.43;;;3.95;;
56718;SDS011;42597;40.636;0.278;2024-01-27T04:56:32;8.20;;;4.53;;
56718;SDS011;42597;40.636;0.278;2024-01-27T04:58:58;7.78;;;3.88;;
56718;SDS011;42597;40.636;0.278;2024-01-27T05:01:23;7.85;;;3.78;;
56718;SDS011;42597;40.636;0.278;2024-01-27T05:03:49;7.32;;;4.95;;
56718;SDS011;42597;40.636;0.278;2024-01-27T05:06:15;8.25;;;4.25;;
56718;SDS011;42597;40.636;0.278;2024-01-27T05:08:41;10.07;;;3.83;;
56718;SDS011;42597;40.636;0.278;2024-01-27T05:11:06;5.70;;;3.45;;
56718;SDS011;42597;40.636;0.278;2024-01-27T05:13:32;11.30;;;4.28;;
56718;SDS011;42597;40.636;0.278;2024-01-27T05:15:58;5.72;;;3.67;;
56718;SDS011;42597;40.636;0.278;2024-01-27T05:18:24;6.68;;;3.78;;
56718;SDS011;42597;40.636;0.278;2024-01-27T05:20:49;8.52;;;4.75;;
56718;SDS011;42597;40.636;0.278;2024-01-27T05:23:15;6.75;;;4.10;;
56718;SDS011;42597;40.636;0.278;2024-01-27T05:25:40;7.38;;;3.97;;
56718;SDS011;42597;40.636;0.278;2024-01-27T05:28:06;6.10;;;3.53;;
56718;SDS011;42597;40.636;0.278;2024-01-27T05:30:32;6.70;;;4.00;;
56718;SDS011;42597;40.636;0.278;2024-01-27T05:32:58;10.07;;;3.75;;
56718;SDS011;42597;40.636;0.278;2024-01-27T05:35:23;8.73;;;3.42;;
56718;SDS011;42597;40.636;0.278;2024-01-27T05:37:49;8.30;;;4.13;;
56718;SDS011;42597;40.636;0.278;2024-01-27T05:40:16;7.28;;;3.60;;
56718;SDS011;42597;40.636;0.278;2024-01-27T05:42:42;5.57;;;3.25;;
56718;SDS011;42597;40.636;0.278;2024-01-27T05:45:08;9.65;;;3.80;;
56718;SDS011;42597;40.636;0.278;2024-01-27T05:47:35;7.30;;;4.10;;
56718;SDS011;42597;40.636;0.278;2024-01-27T05:50:01;10.45;;;3.97;;
56718;SDS011;42597;40.636;0.278;2024-01-27T05:52:26;6.57;;;3.85;;
56718;SDS011;42597;40.636;0.278;2024-01-27T05:54:52;7.45;;;4.32;;
56718;SDS011;42597;40.636;0.278;2024-01-27T05:57:18;6.40;;;3.83;;
56718;SDS011;42597;40.636;0.278;2024-01-27T05:59:44;4.82;;;2.80;;
56718;SDS011;42597;40.636;0.278;2024-01-27T06:02:10;9.98;;;3.75;;
56718;SDS011;42597;40.636;0.278;2024-01-27T06:04:35;6.53;;;3.75;;
56718;SDS011;42597;40.636;0.278;2024-01-27T06:07:01;7.22;;;4.50;;
56718;SDS011;42597;40.636;0.278;2024-01-27T06:09:27;9.52;;;4.50;;
56718;SDS011;42597;40.636;0.278;2024-01-27T06:11:52;7.28;;;4.22;;
56718;SDS011;42597;40.636;0.278;2024-01-27T06:14:18;7.65;;;4.43;;
56718;SDS011;42597;40.636;0.278;2024-01-27T06:16:44;9.35;;;4.60;;
56718;SDS011;42597;40.636;0.278;2024-01-27T06:19:09;5.82;;;3.58;;
56718;SDS011;42597;40.636;0.278;2024-01-27T06:21:35;9.55;;;3.70;;
56718;SDS011;42597;40.636;0.278;2024-01-27T06:24:01;8.52;;;3.53;;
56718;SDS011;42597;40.636;0.278;2024-01-27T06:26:27;7.78;;;4.25;;
56718;SDS011;42597;40.636;0.278;2024-01-27T06:28:52;7.70;;;3.45;;
56718;SDS011;42597;40.636;0.278;2024-01-27T06:31:18;8.60;;;3.45;;
56718;SDS011;42597;40.636;0.278;2024-01-27T06:33:44;4.57;;;3.15;;
56718;SDS011;42597;40.636;0.278;2024-01-27T06:36:09;6.15;;;3.25;;
56718;SDS011;42597;40.636;0.278;2024-01-27T06:38:37;7.18;;;3.25;;
56718;SDS011;42597;40.636;0.278;2024-01-27T06:41:03;9.82;;;3.35;;
56718;SDS011;42597;40.636;0.278;2024-01-27T06:43:29;6.97;;;3.17;;
56718;SDS011;42597;40.636;0.278;2024-01-27T06:45:55;6.90;;;4.20;;
56718;SDS011;42597;40.636;0.278;2024-01-27T06:48:22;7.15;;;3.00;;
56718;SDS011;42597;40.636;0.278;2024-01-27T06:50:50;7.83;;;3.60;;
56718;SDS011;42597;40.636;0.278;2024-01-27T06:53:18;7.43;;;3.55;;
56718;SDS011;42597;40.636;0.278;2024-01-27T06:55:44;6.75;;;3.95;;
56718;SDS011;42597;40.636;0.278;2024-01-27T06:58:09;6.55;;;3.10;;
56718;SDS011;42597;40.636;0.278;2024-01-27T07:00:35;10.73;;;4.53;;
56718;SDS011;42597;40.636;0.278;2024-01-27T07:03:01;6.20;;;3.92;;
56718;SDS011;42597;40.636;0.278;2024-01-27T07:05:27;8.02;;;3.42;;
56718;SDS011;42597;40.636;0.278;2024-01-27T07:07:53;7.72;;;3.65;;
56718;SDS011;42597;40.636;0.278;2024-01-27T07:10:19;6.95;;;3.13;;
56718;SDS011;42597;40.636;0.278;2024-01-27T07:12:45;10.63;;;5.00;;
56718;SDS011;42597;40.636;0.278;2024-01-27T07:15:10;7.60;;;4.30;;
56718;SDS011;42597;40.636;0.278;2024-01-27T07:17:36;7.20;;;3.10;;
56718;SDS011;42597;40.636;0.278;2024-01-27T07:20:02;7.15;;;3.35;;
56718;SDS011;42597;40.636;0.278;2024-01-27T07:22:28;6.30;;;3.35;;
56718;SDS011;42597;40.636;0.278;2024-01-27T07:24:53;9.02;;;3.95;;
56718;SDS011;42597;40.636;0.278;2024-01-27T07:27:20;8.63;;;3.20;;
56718;SDS011;42597;40.636;0.278;2024-01-27T07:29:46;7.10;;;3.78;;
56718;SDS011;42597;40.636;0.278;2024-01-27T07:32:11;12.55;;;4.10;;
56718;SDS011;42597;40.636;0.278;2024-01-27T07:34:44;6.93;;;3.38;;
56718;SDS011;42597;40.636;0.278;2024-01-27T07:37:10;8.88;;;4.18;;
56718;SDS011;42597;40.636;0.278;2024-01-27T07:39:35;6.78;;;3.10;;
56718;SDS011;42597;40.636;0.278;2024-01-27T07:42:01;5.95;;;3.70;;
56718;SDS011;42597;40.636;0.278;2024-01-27T07:44:27;5.20;;;3.00;;
56718;SDS011;42597;40.636;0.278;2024-01-27T07:46:53;5.63;;;3.38;;
56718;SDS011;42597;40.636;0.278;2024-01-27T07:49:18;6.20;;;3.72;;
56718;SDS011;42597;40.636;0.278;2024-01-27T07:51:44;6.15;;;3.65;;
56718;SDS011;42597;40.636;0.278;2024-01-27T07:54:10;7.75;;;3.58;;
56718;SDS011;42597;40.636;0.278;2024-01-27T07:56:37;9.38;;;4.38;;
56718;SDS011;42597;40.636;0.278;2024-01-27T07:59:03;7.30;;;3.25;;
56718;SDS011;42597;40.636;0.278;2024-01-27T08:01:28;6.93;;;3.40;;
56718;SDS011;42597;40.636;0.278;2024-01-27T08:03:54;7.13;;;4.32;;
56718;SDS011;42597;40.636;0.278;2024-01-27T08:06:27;7.03;;;3.92;;
56718;SDS011;42597;40.636;0.278;2024-01-27T08:08:56;7.05;;;3.55;;
56718;SDS011;42597;40.636;0.278;2024-01-27T08:11:22;7.18;;;3.70;;
56718;SDS011;42597;40.636;0.278;2024-01-27T08:13:49;7.90;;;4.38;;
56718;SDS011;42597;40.636;0.278;2024-01-27T08:16:15;6.07;;;3.60;;
56718;SDS011;42597;40.636;0.278;2024-01-27T08:18:41;6.78;;;4.18;;
56718;SDS011;42597;40.636;0.278;2024-01-27T08:21:09;7.78;;;3.47;;
56718;SDS011;42597;40.636;0.278;2024-01-27T08:23:35;6.93;;;3.15;;
56718;SDS011;42597;40.636;0.278;2024-01-27T08:26:01;6.07;;;3.45;;
56718;SDS011;42597;40.636;0.278;2024-01-27T08:28:26;7.82;;;4.13;;
56718;SDS011;42597;40.636;0.278;2024-01-27T08:30:52;8.43;;;4.88;;
56718;SDS011;42597;40.636;0.278;2024-01-27T08:33:18;6.70;;;3.95;;
56718;SDS011;42597;40.636;0.278;2024-01-27T08:35:46;5.85;;;3.38;;
56718;SDS011;42597;40.636;0.278;2024-01-27T08:38:13;7.45;;;3.90;;
56718;SDS011;42597;40.636;0.278;2024-01-27T08:40:39;7.47;;;4.63;;
56718;SDS011;42597;40.636;0.278;2024-01-27T08:43:04;7.20;;;3.92;;
56718;SDS011;42597;40.636;0.278;2024-01-27T08:45:31;7.10;;;4.57;;
56718;SDS011;42597;40.636;0.278;2024-01-27T08:47:57;11.32;;;4.25;;
56718;SDS011;42597;40.636;0.278;2024-01-27T08:50:23;14.65;;;4.95;;
56718;SDS011;42597;40.636;0.278;2024-01-27T08:52:49;7.55;;;4.13;;
56718;SDS011;42597;40.636;0.278;2024-01-27T08:55:15;16.02;;;10.02;;
56718;SDS011;42597;40.636;0.278;2024-01-27T08:57:44;53.60;;;29.42;;
56718;SDS011;42597;40.636;0.278;2024-01-27T09:00:10;16.80;;;9.15;;
56718;SDS011;42597;40.636;0.278;2024-01-27T09:02:38;29.45;;;15.32;;
56718;SDS011;42597;40.636;0.278;2024-01-27T09:05:04;36.05;;;21.52;;
56718;SDS011;42597;40.636;0.278;2024-01-27T09:07:30;31.98;;;19.50;;
56718;SDS011;42597;40.636;0.278;2024-01-27T09:09:56;71.30;;;40.33;;
56718;SDS011;42597;40.636;0.278;2024-01-27T09:12:21;48.58;;;31.20;;
56718;SDS011;42597;40.636;0.278;2024-01-27T09:14:47;24.63;;;15.00;;
56718;SDS011;42597;40.636;0.278;2024-01-27T09:17:13;15.65;;;10.43;;
56718;SDS011;42597;40.636;0.278;2024-01-27T09:19:38;26.35;;;14.93;;
56718;SDS011;42597;40.636;0.278;2024-01-27T09:22:04;32.25;;;19.55;;
56718;SDS011;42597;40.636;0.278;2024-01-27T09:24:29;16.55;;;10.15;;
56718;SDS011;42597;40.636;0.278;2024-01-27T09:26:55;21.20;;;13.05;;
56718;SDS011;42597;40.636;0.278;2024-01-27T09:29:21;15.38;;;9.93;;
56718;SDS011;42597;40.636;0.278;2024-01-27T09:31:46;15.00;;;7.20;;
56718;SDS011;42597;40.636;0.278;2024-01-27T09:34:12;10.45;;;6.72;;
56718;SDS011;42597;40.636;0.278;2024-01-27T09:36:38;10.40;;;6.07;;
56718;SDS011;42597;40.636;0.278;2024-01-27T09:39:04;11.13;;;6.18;;
56718;SDS011;42597;40.636;0.278;2024-01-27T09:41:30;9.05;;;4.80;;
56718;SDS011;42597;40.636;0.278;2024-01-27T09:44:02;7.18;;;5.10;;
56718;SDS011;42597;40.636;0.278;2024-01-27T09:46:29;9.93;;;5.97;;
56718;SDS011;42597;40.636;0.278;2024-01-27T09:48:56;9.32;;;6.40;;
56718;SDS011;42597;40.636;0.278;2024-01-27T09:51:22;11.27;;;7.20;;
56718;SDS011;42597;40.636;0.278;2024-01-27T09:53:48;11.55;;;6.93;;
56718;SDS011;42597;40.636;0.278;2024-01-27T09:56:17;13.30;;;8.63;;
56718;SDS011;42597;40.636;0.278;2024-01-27T09:58:46;9.20;;;6.75;;
56718;SDS011;42597;40.636;0.278;2024-01-27T10:01:16;6.83;;;5.27;;
56718;SDS011;42597;40.636;0.278;2024-01-27T10:03:43;12.43;;;6.38;;
56718;SDS011;42597;40.636;0.278;2024-01-27T10:06:09;36.15;;;29.33;;
56718;SDS011;42597;40.636;0.278;2024-01-27T10:08:35;26.48;;;21.40;;
56718;SDS011;42597;40.636;0.278;2024-01-27T10:11:06;18.02;;;15.38;;
56718;SDS011;42597;40.636;0.278;2024-01-27T10:13:32;18.50;;;14.82;;
56718;SDS011;42597;40.636;0.278;2024-01-27T10:16:05;16.20;;;10.98;;
56718;SDS011;42597;40.636;0.278;2024-01-27T10:18:32;14.52;;;8.95;;
56718;SDS011;42597;40.636;0.278;2024-01-27T10:20:59;8.90;;;6.57;;
56718;SDS011;42597;40.636;0.278;2024-01-27T10:23:25;9.60;;;6.70;;
56718;SDS011;42597;40.636;0.278;2024-01-27T10:25:51;8.85;;;6.63;;
56718;SDS011;42597;40.636;0.278;2024-01-27T10:28:18;12.13;;;8.77;;
56718;SDS011;42597;40.636;0.278;2024-01-27T10:30:44;9.55;;;8.20;;
56718;SDS011;42597;40.636;0.278;2024-01-27T10:33:10;9.70;;;7.55;;
56718;SDS011;42597;40.636;0.278;2024-01-27T10:35:40;10.23;;;8.20;;
56718;SDS011;42597;40.636;0.278;2024-01-27T10:38:06;8.20;;;6.10;;
56718;SDS011;42597;40.636;0.278;2024-01-27T10:40:32;10.68;;;5.18;;
56718;SDS011;42597;40.636;0.278;2024-01-27T10:43:02;9.32;;;6.38;;
56718;SDS011;42597;40.636;0.278;2024-01-27T10:45:30;7.05;;;4.38;;
56718;SDS011;42597;40.636;0.278;2024-01-27T10:48:03;5.05;;;3.70;;
56718;SDS011;42597;40.636;0.278;2024-01-27T10:50:29;8.18;;;5.47;;
56718;SDS011;42597;40.636;0.278;2024-01-27T10:52:59;11.15;;;3.70;;
56718;SDS011;42597;40.636;0.278;2024-01-27T10:55:28;6.13;;;4.38;;
56718;SDS011;42597;40.636;0.278;2024-01-27T10:57:55;7.15;;;4.20;;
56718;SDS011;42597;40.636;0.278;2024-01-27T11:00:21;24.05;;;15.68;;
56718;SDS011;42597;40.636;0.278;2024-01-27T11:02:49;21.15;;;18.05;;
56718;SDS011;42597;40.636;0.278;2024-01-27T11:07:44;20.77;;;16.08;;
56718;SDS011;42597;40.636;0.278;2024-01-27T11:10:11;20.48;;;15.18;;
56718;SDS011;42597;40.636;0.278;2024-01-27T11:12:37;19.55;;;12.88;;
56718;SDS011;42597;40.636;0.278;2024-01-27T11:15:04;15.30;;;10.73;;
56718;SDS011;42597;40.636;0.278;2024-01-27T11:17:40;10.48;;;7.03;;
56718;SDS011;42597;40.636;0.278;2024-01-27T11:20:10;9.57;;;5.80;;
56718;SDS011;42597;40.636;0.278;2024-01-27T11:22:41;7.82;;;5.03;;
56718;SDS011;42597;40.636;0.278;2024-01-27T11:27:38;12.18;;;5.47;;
56718;SDS011;42597;40.636;0.278;2024-01-27T11:30:05;8.35;;;5.18;;
56718;SDS011;42597;40.636;0.278;2024-01-27T11:32:37;8.45;;;5.50;;
56718;SDS011;42597;40.636;0.278;2024-01-27T11:35:04;12.90;;;7.65;;
56718;SDS011;42597;40.636;0.278;2024-01-27T11:37:30;9.57;;;4.65;;
56718;SDS011;42597;40.636;0.278;2024-01-27T11:40:05;17.00;;;12.85;;
56718;SDS011;42597;40.636;0.278;2024-01-27T11:42:32;12.02;;;10.18;;
56718;SDS011;42597;40.636;0.278;2024-01-27T11:44:58;18.75;;;14.27;;
56718;SDS011;42597;40.636;0.278;2024-01-27T11:47:25;27.08;;;16.10;;
56718;SDS011;42597;40.636;0.278;2024-01-27T11:49:51;19.67;;;17.23;;
56718;SDS011;42597;40.636;0.278;2024-01-27T11:52:18;19.45;;;12.55;;
56718;SDS011;42597;40.636;0.278;2024-01-27T11:54:44;20.50;;;16.70;;
56718;SDS011;42597;40.636;0.278;2024-01-27T11:57:10;31.17;;;20.35;;
56718;SDS011;42597;40.636;0.278;2024-01-27T11:59:36;12.10;;;9.43;;
56718;SDS011;42597;40.636;0.278;2024-01-27T12:02:01;13.82;;;10.15;;
56718;SDS011;42597;40.636;0.278;2024-01-27T12:04:27;19.75;;;14.07;;
56718;SDS011;42597;40.636;0.278;2024-01-27T12:06:53;21.02;;;13.45;;
56718;SDS011;42597;40.636;0.278;2024-01-27T12:09:19;16.08;;;10.80;;
56718;SDS011;42597;40.636;0.278;2024-01-27T12:11:45;13.05;;;9.38;;
56718;SDS011;42597;40.636;0.278;2024-01-27T12:14:11;13.55;;;9.93;;
56718;SDS011;42597;40.636;0.278;2024-01-27T12:16:37;10.23;;;7.78;;
56718;SDS011;42597;40.636;0.278;2024-01-27T12:19:03;14.82;;;11.48;;
56718;SDS011;42597;40.636;0.278;2024-01-27T12:21:29;12.75;;;10.32;;
56718;SDS011;42597;40.636;0.278;2024-01-27T12:23:55;13.73;;;10.73;;
56718;SDS011;42597;40.636;0.278;2024-01-27T12:26:22;12.10;;;8.70;;
56718;SDS011;42597;40.636;0.278;2024-01-27T12:28:50;16.27;;;8.07;;
56718;SDS011;42597;40.636;0.278;2024-01-27T12:31:16;9.90;;;7.35;;
56718;SDS011;42597;40.636;0.278;2024-01-27T12:33:53;15.77;;;10.45;;
56718;SDS011;42597;40.636;0.278;2024-01-27T12:36:20;13.20;;;9.85;;
56718;SDS011;42597;40.636;0.278;2024-01-27T12:38:47;12.00;;;8.38;;
56718;SDS011;42597;40.636;0.278;2024-01-27T12:41:21;12.57;;;8.35;;
56718;SDS011;42597;40.636;0.278;2024-01-27T12:43:46;10.80;;;7.88;;
56718;SDS011;42597;40.636;0.278;2024-01-27T12:46:12;10.77;;;7.47;;
56718;SDS011;42597;40.636;0.278;2024-01-27T12:48:40;12.85;;;6.05;;
56718;SDS011;42597;40.636;0.278;2024-01-27T12:51:05;11.63;;;7.03;;
56718;SDS011;42597;40.636;0.278;2024-01-27T12:53:31;7.65;;;5.93;;
56718;SDS011;42597;40.636;0.278;2024-01-27T12:55:56;10.93;;;7.10;;
56718;SDS011;42597;40.636;0.278;2024-01-27T12:58:22;13.23;;;8.73;;
56718;SDS011;42597;40.636;0.278;2024-01-27T13:00:48;15.75;;;8.32;;
56718;SDS011;42597;40.636;0.278;2024-01-27T13:03:14;8.23;;;6.53;;
56718;SDS011;42597;40.636;0.278;2024-01-27T13:05:39;9.15;;;6.47;;
56718;SDS011;42597;40.636;0.278;2024-01-27T13:08:05;11.38;;;6.82;;
56718;SDS011;42597;40.636;0.278;2024-01-27T13:10:31;10.15;;;7.70;;
56718;SDS011;42597;40.636;0.278;2024-01-27T13:12:56;9.00;;;6.97;;
56718;SDS011;42597;40.636;0.278;2024-01-27T13:15:23;9.65;;;6.38;;
56718;SDS011;42597;40.636;0.278;2024-01-27T13:17:50;10.80;;;8.57;;
56718;SDS011;42597;40.636;0.278;2024-01-27T13:20:16;16.00;;;10.45;;
56718;SDS011;42597;40.636;0.278;2024-01-27T13:22:42;11.00;;;7.93;;
56718;SDS011;42597;40.636;0.278;2024-01-27T13:25:08;11.52;;;8.27;;
56718;SDS011;42597;40.636;0.278;2024-01-27T13:27:34;13.77;;;9.95;;
56718;SDS011;42597;40.636;0.278;2024-01-27T13:30:00;12.80;;;10.55;;
56718;SDS011;42597;40.636;0.278;2024-01-27T13:32:25;13.43;;;9.73;;
56718;SDS011;42597;40.636;0.278;2024-01-27T13:34:51;14.35;;;11.27;;
56718;SDS011;42597;40.636;0.278;2024-01-27T13:37:17;15.43;;;11.77;;
56718;SDS011;42597;40.636;0.278;2024-01-27T13:39:43;16.48;;;12.05;;
56718;SDS011;42597;40.636;0.278;2024-01-27T13:42:10;13.88;;;11.15;;
56718;SDS011;42597;40.636;0.278;2024-01-27T13:44:36;19.58;;;13.45;;
56718;SDS011;42597;40.636;0.278;2024-01-27T13:47:05;18.80;;;14.00;;
56718;SDS011;42597;40.636;0.278;2024-01-27T13:49:31;15.52;;;13.90;;
56718;SDS011;42597;40.636;0.278;2024-01-27T13:51:57;18.63;;;13.70;;
56718;SDS011;42597;40.636;0.278;2024-01-27T13:54:23;15.60;;;13.38;;
56718;SDS011;42597;40.636;0.278;2024-01-27T13:56:48;21.73;;;12.50;;
56718;SDS011;42597;40.636;0.278;2024-01-27T13:59:14;19.38;;;13.52;;
56718;SDS011;42597;40.636;0.278;2024-01-27T14:01:39;12.50;;;10.52;;
56718;SDS011;42597;40.636;0.278;2024-01-27T14:04:05;15.18;;;12.18;;
56718;SDS011;42597;40.636;0.278;2024-01-27T14:06:33;15.80;;;12.38;;
56718;SDS011;42597;40.636;0.278;2024-01-27T14:09:00;15.13;;;12.15;;
56718;SDS011;42597;40.636;0.278;2024-01-27T14:11:27;18.02;;;11.27;;
56718;SDS011;42597;40.636;0.278;2024-01-27T14:13:53;14.57;;;10.30;;
56718;SDS011;42597;40.636;0.278;2024-01-27T14:16:19;18.85;;;11.07;;
56718;SDS011;42597;40.636;0.278;2024-01-27T14:18:45;14.52;;;10.60;;
56718;SDS011;42597;40.636;0.278;2024-01-27T14:21:11;16.17;;;10.82;;
56718;SDS011;42597;40.636;0.278;2024-01-27T14:23:37;14.20;;;10.82;;
56718;SDS011;42597;40.636;0.278;2024-01-27T14:26:05;14.93;;;10.60;;
56718;SDS011;42597;40.636;0.278;2024-01-27T14:28:33;13.68;;;9.43;;
56718;SDS011;42597;40.636;0.278;2024-01-27T14:30:59;15.73;;;11.02;;
56718;SDS011;42597;40.636;0.278;2024-01-27T14:33:24;18.23;;;13.02;;
56718;SDS011;42597;40.636;0.278;2024-01-27T14:35:50;15.13;;;10.85;;
56718;SDS011;42597;40.636;0.278;2024-01-27T14:38:16;19.52;;;12.90;;
56718;SDS011;42597;40.636;0.278;2024-01-27T14:40:41;15.82;;;12.85;;
56718;SDS011;42597;40.636;0.278;2024-01-27T14:43:07;14.48;;;11.20;;
56718;SDS011;42597;40.636;0.278;2024-01-27T14:45:36;19.33;;;14.20;;